Time;durP1;ratioP1;P1;durP2;ratioP2;P2;SDS_P1;SDS_P2;PMS_P1;PMS_P2;Temp;Humidity;BMP_temperature;BMP_pressure;BME280_temperature;BME280_humidity;BME280_pressure;Samples;Min_cycle;Max_cycle;Signal;HPM_P1;HPM_P2
2023/04/22 00:00:15;;;;;;;66.40;37.80;;;;;;;6.54;100.00;99147.90;110398;1274;23296;-64
2023/04/22 00:02:45;;;;;;;74.70;39.70;;;;;;;6.52;100.00;99152.10;110408;1273;22435;-64
2023/04/22 00:05:14;;;;;;;43.30;22.70;;;;;;;6.48;100.00;99151.65;108944;1275;22939;-64
2023/04/22 00:07:47;;;;;;;34.20;19.00;;;;;;;6.45;100.00;99150.20;110404;1275;22624;-64
2023/04/22 00:10:15;;;;;;;27.10;14.20;;;;;;;6.41;100.00;99150.45;110380;1275;22397;-64
2023/04/22 00:12:43;;;;;;;16.00;8.40;;;;;;;6.35;100.00;99149.59;110399;1274;22442;-65
2023/04/22 00:15:11;;;;;;;16.40;8.80;;;;;;;6.31;100.00;99155.39;107018;1275;22510;-64
2023/04/22 00:17:41;;;;;;;13.80;8.40;;;;;;;6.30;100.00;99156.14;110425;1274;22892;-65
2023/04/22 00:20:10;;;;;;;15.20;8.20;;;;;;;6.31;100.00;99157.55;110424;1270;22252;-65
2023/04/22 00:22:38;;;;;;;18.80;8.30;;;;;;;6.32;100.00;99161.39;108935;1270;24017;-64
2023/04/22 00:25:07;;;;;;;18.70;9.40;;;;;;;6.31;100.00;99161.77;106773;1273;23759;-64
2023/04/22 00:27:35;;;;;;;16.00;9.70;;;;;;;6.26;100.00;99163.42;107517;1269;22762;-64
2023/04/22 00:30:05;;;;;;;18.40;10.20;;;;;;;6.20;100.00;99168.01;110388;1272;23106;-64
2023/04/22 00:32:33;;;;;;;17.40;9.40;;;;;;;6.16;100.00;99171.69;110375;1269;22422;-65
2023/04/22 00:35:01;;;;;;;19.90;10.70;;;;;;;6.15;100.00;99174.39;110397;1276;22408;-65
2023/04/22 00:37:30;;;;;;;21.70;11.70;;;;;;;6.14;100.00;99175.94;107892;1276;22532;-64
2023/04/22 00:39:58;;;;;;;19.90;12.40;;;;;;;6.11;100.00;99173.71;107510;1273;23397;-64
2023/04/22 00:42:27;;;;;;;21.00;12.50;;;;;;;6.08;100.00;99175.95;106722;1276;23897;-64
2023/04/22 00:44:55;;;;;;;21.50;13.00;;;;;;;6.00;100.00;99172.73;109706;1272;23048;-65
2023/04/22 00:47:25;;;;;;;20.50;12.00;;;;;;;5.93;100.00;99170.30;108306;1273;24037;-64
2023/04/22 00:49:54;;;;;;;19.70;12.70;;;;;;;5.91;100.00;99176.23;106787;1271;26597;-64
2023/04/22 00:52:23;;;;;;;21.50;11.30;;;;;;;5.90;100.00;99172.20;106934;1275;25330;-64
2023/04/22 00:54:51;;;;;;;17.80;11.40;;;;;;;5.88;100.00;99171.11;107534;1273;23229;-64
2023/04/22 00:57:20;;;;;;;15.70;10.90;;;;;;;5.86;100.00;99172.48;110356;1273;22615;-64
2023/04/22 00:59:48;;;;;;;21.30;11.60;;;;;;;5.81;100.00;99176.61;110452;1275;23055;-65
2023/04/22 01:02:18;;;;;;;21.40;11.20;;;;;;;5.75;100.00;99182.11;110297;1270;22456;-65
2023/04/22 01:04:47;;;;;;;16.10;10.30;;;;;;;5.70;100.00;99173.53;110288;1275;22249;-65
2023/04/22 01:07:16;;;;;;;14.50;9.40;;;;;;;5.71;100.00;99177.10;110387;1269;22862;-65
2023/04/22 01:09:44;;;;;;;14.80;8.20;;;;;;;5.70;100.00;99178.48;110157;1275;22212;-65
2023/04/22 01:12:12;;;;;;;14.50;8.60;;;;;;;5.69;100.00;99180.65;110440;1270;22373;-65
2023/04/22 01:14:41;;;;;;;16.60;9.00;;;;;;;5.65;100.00;99177.31;110317;1276;22946;-65
2023/04/22 01:17:10;;;;;;;16.30;9.00;;;;;;;5.59;100.00;99176.48;110346;1274;22241;-65
2023/04/22 01:19:40;;;;;;;14.00;8.40;;;;;;;5.55;100.00;99179.46;110332;1273;22300;-65
2023/04/22 01:22:09;;;;;;;16.30;7.90;;;;;;;5.56;100.00;99174.30;107442;1273;22543;-64
2023/04/22 01:24:37;;;;;;;15.30;7.90;;;;;;;5.58;100.00;99177.23;107442;1275;23054;-64
2023/04/22 01:27:05;;;;;;;13.60;7.20;;;;;;;5.58;100.00;99177.02;106643;1275;25334;-64
2023/04/22 01:29:36;;;;;;;15.60;7.80;;;;;;;5.54;100.00;99177.77;106967;1270;22545;-63
2023/04/22 01:32:05;;;;;;;15.30;7.40;;;;;;;5.47;100.00;99177.70;107005;1273;25401;-64
2023/04/22 01:34:33;;;;;;;12.00;6.80;;;;;;;5.46;100.00;99174.07;107147;1275;25341;-64
2023/04/22 01:37:02;;;;;;;12.60;6.90;;;;;;;5.45;100.00;99172.92;107047;1274;25340;-64
2023/04/22 01:39:30;;;;;;;10.00;6.40;;;;;;;5.42;100.00;99173.20;107297;1275;25325;-64
2023/04/22 01:41:58;;;;;;;12.50;7.00;;;;;;;5.33;100.00;99175.16;106871;1273;25393;-64
2023/04/22 01:44:27;;;;;;;12.80;7.50;;;;;;;5.26;100.00;99173.66;106949;1270;27471;-64
2023/04/22 01:46:56;;;;;;;11.70;6.60;;;;;;;5.21;100.00;99178.67;106675;1276;25302;-64
2023/04/22 01:49:24;;;;;;;14.60;6.90;;;;;;;5.20;100.00;99175.16;106810;1274;26239;-64
2023/04/22 01:51:52;;;;;;;9.60;6.10;;;;;;;5.22;100.00;99174.58;106781;1254;26493;-64
2023/04/22 01:54:20;;;;;;;14.50;7.00;;;;;;;5.22;100.00;99174.74;106757;1276;23763;-64
2023/04/22 01:56:51;;;;;;;14.70;6.80;;;;;;;5.14;100.00;99173.67;107826;1272;23167;-65
2023/04/22 01:59:20;;;;;;;11.00;7.00;;;;;;;5.06;100.00;99177.12;110380;1276;22286;-64
2023/04/22 02:01:49;;;;;;;11.90;6.70;;;;;;;5.01;100.00;99177.31;110424;1275;22169;-63
2023/04/22 02:04:18;;;;;;;13.50;6.70;;;;;;;5.01;100.00;99179.91;107491;1275;22566;-63
2023/04/22 02:06:46;;;;;;;13.30;6.40;;;;;;;5.02;100.00;99180.35;110401;1273;22334;-64
2023/04/22 02:09:15;;;;;;;12.10;7.30;;;;;;;5.02;100.00;99179.60;110379;1275;22280;-64
2023/04/22 02:11:43;;;;;;;12.00;6.50;;;;;;;4.97;100.00;99183.89;110391;1274;22280;-64
2023/04/22 02:14:12;;;;;;;11.30;6.30;;;;;;;4.94;100.00;99183.10;110383;1273;22297;-63
2023/04/22 02:16:41;;;;;;;9.40;5.80;;;;;;;4.97;100.00;99181.74;110383;1275;22771;-65
2023/04/22 02:19:09;;;;;;;12.50;5.80;;;;;;;5.00;100.00;99179.58;110442;1273;22432;-64
2023/04/22 02:21:38;;;;;;;10.10;5.80;;;;;;;4.98;100.00;99178.90;110381;1275;22407;-64
2023/04/22 02:24:07;;;;;;;13.70;6.60;;;;;;;4.93;100.00;99172.50;110358;1273;22347;-64
2023/04/22 02:26:35;;;;;;;9.50;5.70;;;;;;;4.89;100.00;99171.98;110353;1272;22399;-64
2023/04/22 02:29:03;;;;;;;10.30;6.20;;;;;;;4.92;100.00;99170.61;110427;1273;22184;-64
2023/04/22 02:31:32;;;;;;;12.90;6.00;;;;;;;4.97;100.00;99173.80;110361;1273;22461;-64
2023/04/22 02:34:01;;;;;;;14.30;5.70;;;;;;;4.99;100.00;99174.33;110339;1270;22253;-64
2023/04/22 02:36:30;;;;;;;11.10;6.10;;;;;;;4.97;100.00;99172.80;110446;1272;22218;-64
2023/04/22 02:39:00;;;;;;;9.00;5.90;;;;;;;4.96;100.00;99172.79;110336;1275;22225;-64
2023/04/22 02:41:28;;;;;;;9.20;5.50;;;;;;;5.01;100.00;99173.45;110411;1272;22460;-64
2023/04/22 02:43:57;;;;;;;12.00;6.30;;;;;;;5.05;100.00;99174.94;110353;1271;22416;-64
2023/04/22 02:46:27;;;;;;;12.50;6.10;;;;;;;5.07;100.00;99172.81;110402;1275;22256;-64
2023/04/22 02:48:56;;;;;;;12.50;7.60;;;;;;;5.04;100.00;99172.62;110325;1270;22398;-64
2023/04/22 02:51:25;;;;;;;13.30;6.80;;;;;;;5.03;100.00;99167.73;110307;1273;22393;-65
2023/04/22 02:53:53;;;;;;;13.50;7.30;;;;;;;5.07;100.00;99168.98;109115;1270;22529;-64
2023/04/22 02:56:21;;;;;;;16.40;7.80;;;;;;;5.14;100.00;99172.69;110391;1274;22213;-65
2023/04/22 02:58:49;;;;;;;14.00;6.80;;;;;;;5.17;100.00;99168.26;110058;1275;22619;-64
2023/04/22 03:01:18;;;;;;;15.40;6.70;;;;;;;5.19;100.00;99169.73;110349;1275;22902;-64
2023/04/22 03:03:46;;;;;;;14.10;7.50;;;;;;;5.25;100.00;99173.70;106899;1270;23165;-64
2023/04/22 03:06:19;;;;;;;16.50;6.90;;;;;;;5.38;100.00;99175.70;108899;1273;23288;-64
2023/04/22 03:08:48;;;;;;;17.20;8.20;;;;;;;5.45;100.00;99170.77;108223;1275;25306;-65
2023/04/22 03:11:16;;;;;;;14.00;6.90;;;;;;;5.46;100.00;99173.63;106546;1275;22726;-64
2023/04/22 03:13:44;;;;;;;19.30;7.30;;;;;;;5.44;100.00;99175.55;107904;1274;22244;-65
2023/04/22 03:16:13;;;;;;;14.60;6.60;;;;;;;5.44;100.00;99177.71;107408;1274;23010;-65
2023/04/22 03:18:41;;;;;;;14.20;6.10;;;;;;;5.56;100.00;99178.71;110385;1271;23210;-65
2023/04/22 03:21:10;;;;;;;23.00;7.40;;;;;;;5.65;100.00;99182.27;108432;1275;22641;-65
2023/04/22 03:23:40;;;;;;;18.20;7.10;;;;;;;5.68;100.00;99187.55;107515;1267;25321;-65
2023/04/22 03:26:09;;;;;;;16.20;6.40;;;;;;;5.66;100.00;99190.13;109684;1275;22532;-65
2023/04/22 03:28:39;;;;;;;11.60;6.40;;;;;;;5.67;100.00;99190.30;106770;1273;25417;-65
2023/04/22 03:31:08;;;;;;;10.40;6.20;;;;;;;5.75;100.00;99193.25;110441;1275;22961;-66
2023/04/22 03:33:36;;;;;;;10.80;5.80;;;;;;;5.85;100.00;99195.75;110339;1275;22131;-65
2023/04/22 03:36:11;;;;;;;8.40;5.20;;;;;;;5.91;100.00;99194.30;110373;1276;22253;-66
2023/04/22 03:38:39;;;;;;;9.00;5.30;;;;;;;5.96;100.00;99193.51;110335;1276;22307;-66
2023/04/22 03:41:08;;;;;;;8.40;5.50;;;;;;;6.03;100.00;99194.55;110404;1271;22854;-66
2023/04/22 03:43:39;;;;;;;10.90;4.90;;;;;;;6.09;100.00;99196.28;110325;1275;23051;-65
2023/04/22 03:46:09;;;;;;;11.00;5.50;;;;;;;6.24;100.00;99197.66;110367;1274;22257;-65
2023/04/22 03:48:44;;;;;;;8.80;4.80;;;;;;;6.36;100.00;99195.65;110362;1273;23010;-65
2023/04/22 03:51:21;;;;;;;7.40;4.40;;;;;;;6.41;100.00;99194.45;106803;1269;27500;-65
2023/04/22 03:53:50;;;;;;;7.10;4.20;;;;;;;6.45;100.00;99193.73;110321;1267;23030;-66
2023/04/22 03:56:20;;;;;;;9.20;4.80;;;;;;;6.52;100.00;99186.28;110391;1275;24668;-66
2023/04/22 03:58:49;;;;;;;6.30;4.20;;;;;;;6.60;100.00;99184.71;108989;1274;22548;-65
2023/04/22 04:01:18;;;;;;;8.50;4.10;;;;;;;6.67;100.00;99187.19;109756;1275;23376;-65
2023/04/22 04:03:49;;;;;;;11.10;4.40;;;;;;;6.83;100.00;99186.40;107176;1275;26474;-65
2023/04/22 04:06:18;;;;;;;8.70;4.20;;;;;;;6.96;100.00;99181.39;107551;1274;23288;-65
2023/04/22 04:08:46;;;;;;;8.00;4.00;;;;;;;7.01;100.00;99181.64;107317;1273;25311;-66
2023/04/22 04:11:15;;;;;;;9.50;4.50;;;;;;;7.05;100.00;99181.11;107051;1267;23677;-65
2023/04/22 04:13:43;;;;;;;9.90;4.40;;;;;;;7.11;100.00;99181.80;106808;1273;24241;-65
2023/04/22 04:16:21;;;;;;;6.60;4.20;;;;;;;7.17;100.00;99179.13;106775;1275;25330;-66
2023/04/22 04:18:54;;;;;;;8.70;4.30;;;;;;;7.29;100.00;99181.89;106991;1275;22822;-65
2023/04/22 04:21:23;;;;;;;8.60;4.50;;;;;;;7.43;100.00;99180.48;106929;1275;23638;-65
2023/04/22 04:23:52;;;;;;;5.90;4.10;;;;;;;7.56;100.00;99177.13;108696;1274;23155;-65
2023/04/22 04:26:24;;;;;;;6.20;4.10;;;;;;;7.71;100.00;99180.27;109064;1267;22522;-65
2023/04/22 04:28:56;;;;;;;6.90;4.30;;;;;;;7.85;100.00;99181.77;107405;1275;25315;-65
2023/04/22 04:31:24;;;;;;;8.30;4.30;;;;;;;8.03;100.00;99180.68;109518;1275;23699;-64
2023/04/22 04:33:56;;;;;;;10.40;4.40;;;;;;;8.13;100.00;99182.43;107418;1270;25487;-65
2023/04/22 04:36:27;;;;;;;7.50;4.40;;;;;;;8.22;100.00;99176.31;110378;1270;22875;-66
2023/04/22 04:39:00;;;;;;;7.40;4.00;;;;;;;8.34;100.00;99179.77;110391;1275;22435;-65
2023/04/22 04:41:30;;;;;;;8.80;4.40;;;;;;;8.47;100.00;99182.75;110356;1275;22404;-66
2023/04/22 04:43:59;;;;;;;10.80;4.80;;;;;;;8.64;100.00;99183.40;110341;1271;22298;-66
2023/04/22 04:46:33;;;;;;;6.90;4.20;;;;;;;8.83;100.00;99182.23;110336;1275;22603;-66
2023/04/22 04:49:03;;;;;;;7.50;4.30;;;;;;;8.99;100.00;99186.16;110348;1271;22375;-65
2023/04/22 04:51:34;;;;;;;8.20;4.90;;;;;;;9.13;100.00;99180.06;110155;1275;22206;-66
2023/04/22 04:54:03;;;;;;;9.00;4.70;;;;;;;9.34;100.00;99187.60;110411;1273;22229;-67
2023/04/22 04:56:35;;;;;;;7.10;4.60;;;;;;;9.61;100.00;99181.47;110311;1274;22195;-66
2023/04/22 04:59:04;;;;;;;7.70;4.30;;;;;;;9.82;100.00;99180.82;110363;1273;22207;-67
2023/04/22 05:01:35;;;;;;;10.60;4.90;;;;;;;9.87;100.00;99173.13;110035;1269;22527;-66
2023/04/22 05:04:06;;;;;;;8.00;5.20;;;;;;;9.99;100.00;99172.23;107225;1275;25477;-65
2023/04/22 05:06:38;;;;;;;8.90;5.20;;;;;;;10.18;100.00;99169.03;106812;1273;24366;-65
2023/04/22 05:09:07;;;;;;;10.30;5.70;;;;;;;10.37;100.00;99169.67;107266;1267;22981;-65
2023/04/22 05:11:35;;;;;;;9.00;5.20;;;;;;;10.55;100.00;99159.02;106914;1269;25606;-66
2023/04/22 05:14:10;;;;;;;6.80;4.80;;;;;;;10.68;100.00;99152.86;107104;1272;23230;-66
2023/04/22 05:16:41;;;;;;;7.90;4.80;;;;;;;10.74;100.00;99153.30;106756;1272;25330;-66
2023/04/22 05:19:09;;;;;;;9.10;5.30;;;;;;;10.83;100.00;99154.30;107269;1273;26910;-66
2023/04/22 05:21:37;;;;;;;7.30;5.20;;;;;;;10.94;100.00;99154.18;107095;1270;26242;-65
2023/04/22 05:24:06;;;;;;;9.10;5.50;;;;;;;11.05;100.00;99158.80;110382;1267;22507;-66
2023/04/22 05:26:35;;;;;;;9.70;5.00;;;;;;;11.21;100.00;99155.96;110288;1271;22200;-68
2023/04/22 05:29:08;;;;;;;9.80;5.60;;;;;;;11.35;100.00;99156.34;110298;1274;23090;-64
2023/04/22 05:31:36;;;;;;;5.80;4.40;;;;;;;11.51;100.00;99156.96;110321;1269;22233;-64
2023/04/22 05:34:05;;;;;;;10.60;5.20;;;;;;;11.63;100.00;99160.52;110331;1271;22462;-65
2023/04/22 05:36:33;;;;;;;9.30;5.20;;;;;;;11.77;100.00;99159.77;110430;1275;22962;-65
2023/04/22 05:39:02;;;;;;;9.60;5.30;;;;;;;11.96;100.00;99160.43;110289;1276;22428;-65
2023/04/22 05:41:31;;;;;;;7.50;5.10;;;;;;;12.05;100.00;99159.52;110311;1275;22965;-65
2023/04/22 05:44:00;;;;;;;9.80;5.90;;;;;;;12.13;100.00;99160.46;110322;1271;22335;-65
2023/04/22 05:46:30;;;;;;;8.70;5.30;;;;;;;12.12;100.00;99160.75;110372;1273;23169;-65
2023/04/22 05:48:58;;;;;;;8.50;5.30;;;;;;;12.18;100.00;99161.19;110292;1274;22184;-64
2023/04/22 05:51:46;;;;;;;9.70;5.90;;;;;;;12.17;100.00;99161.05;110423;1275;22910;-65
2023/04/22 05:54:15;;;;;;;9.10;5.60;;;;;;;12.11;100.00;99163.27;110318;1273;22603;-65
2023/04/22 05:56:44;;;;;;;9.30;6.00;;;;;;;12.21;100.00;99169.45;110343;1275;22232;-65
2023/04/22 05:59:12;;;;;;;9.90;5.90;;;;;;;12.32;100.00;99168.42;110350;1274;22189;-65
2023/04/22 06:01:40;;;;;;;9.40;5.60;;;;;;;12.49;100.00;99167.53;110408;1269;22185;-65
2023/04/22 06:04:10;;;;;;;8.60;5.60;;;;;;;12.56;100.00;99168.24;110418;1275;23145;-65
2023/04/22 06:06:39;;;;;;;8.00;5.00;;;;;;;12.62;100.00;99166.84;110306;1267;22385;-65
2023/04/22 06:09:07;;;;;;;8.00;5.50;;;;;;;12.65;100.00;99167.48;110412;1275;22255;-65
2023/04/22 06:11:35;;;;;;;8.80;5.20;;;;;;;12.66;100.00;99171.02;110395;1275;22758;-66
2023/04/22 06:14:04;;;;;;;9.40;5.80;;;;;;;12.65;100.00;99167.60;110327;1269;23069;-66
2023/04/22 06:16:33;;;;;;;7.90;5.30;;;;;;;12.67;100.00;99170.40;110381;1275;23075;-66
2023/04/22 06:19:02;;;;;;;7.80;5.10;;;;;;;12.78;100.00;99172.02;110340;1273;22275;-65
2023/04/22 06:21:32;;;;;;;8.00;5.20;;;;;;;12.87;100.00;99174.91;110412;1269;22854;-66
2023/04/22 06:24:00;;;;;;;8.20;5.50;;;;;;;12.92;100.00;99170.99;110350;1275;22473;-67
2023/04/22 06:26:29;;;;;;;9.10;6.00;;;;;;;12.98;100.00;99172.70;110302;1270;22405;-66
2023/04/22 06:28:57;;;;;;;10.50;5.70;;;;;;;13.04;100.00;99173.75;110398;1275;22405;-64
2023/04/22 06:31:26;;;;;;;9.40;5.70;;;;;;;13.08;100.00;99175.38;110390;1273;22223;-66
2023/04/22 06:33:54;;;;;;;11.20;6.30;;;;;;;13.07;100.00;99172.00;110403;1275;22201;-65
2023/04/22 06:36:23;;;;;;;10.10;6.00;;;;;;;12.99;100.00;99174.11;109498;1260;22528;-64
2023/04/22 06:38:55;;;;;;;9.70;6.20;;;;;;;12.99;100.00;99174.11;107009;1271;22586;-64
2023/04/22 06:41:46;;;;;;;9.50;5.80;;;;;;;12.98;100.00;99178.12;106842;1274;23114;-64
2023/04/22 06:44:31;;;;;;;11.50;6.50;;;;;;;12.94;100.00;99177.83;106564;1270;22582;-67
2023/04/22 06:47:21;;;;;;;11.20;6.10;;;;;;;12.91;100.00;99181.68;106777;1267;22527;-66
2023/04/22 06:50:01;;;;;;;11.20;6.10;;;;;;;12.95;100.00;99183.04;107647;1275;25335;-67
2023/04/22 06:52:35;;;;;;;10.20;6.00;;;;;;;12.92;100.00;99179.37;107158;1269;25345;-65
2023/04/22 06:55:04;;;;;;;10.60;6.60;;;;;;;12.93;100.00;99183.66;107068;1275;23766;-64
2023/04/22 06:57:33;;;;;;;13.20;6.80;;;;;;;13.03;100.00;99191.38;106988;1271;22872;-65
2023/04/22 07:00:03;;;;;;;10.80;6.10;;;;;;;13.16;100.00;99189.27;107003;1267;23891;-65
2023/04/22 07:02:33;;;;;;;13.60;6.20;;;;;;;13.23;100.00;99186.80;106768;1275;25318;-64
2023/04/22 07:05:02;;;;;;;12.80;7.00;;;;;;;13.30;100.00;99191.52;107557;1269;23754;-65
2023/04/22 07:07:31;;;;;;;9.90;6.50;;;;;;;13.35;100.00;99188.98;107907;1267;24927;-64
2023/04/22 07:09:59;;;;;;;9.40;6.30;;;;;;;13.45;100.00;99191.73;107067;1269;25340;-64
2023/04/22 07:12:32;;;;;;;12.20;6.60;;;;;;;13.52;100.00;99188.80;110322;1275;22233;-65
2023/04/22 07:15:00;;;;;;;13.30;6.60;;;;;;;13.52;100.00;99188.15;110423;1270;22291;-67
2023/04/22 07:17:29;;;;;;;11.10;7.00;;;;;;;13.50;100.00;99187.76;110324;1269;23210;-66
2023/04/22 07:19:57;;;;;;;11.30;7.20;;;;;;;13.69;100.00;99193.33;110377;1270;22257;-67
2023/04/22 07:22:25;;;;;;;11.60;7.20;;;;;;;13.88;100.00;99192.60;110438;1274;22282;-66
2023/04/22 07:24:53;;;;;;;11.20;7.20;;;;;;;14.12;100.00;99190.66;110444;1275;22269;-65
2023/04/22 07:27:22;;;;;;;10.30;6.90;;;;;;;14.29;100.00;99194.42;110407;1273;22449;-66
2023/04/22 07:29:50;;;;;;;10.30;6.60;;;;;;;14.40;100.00;99188.09;110414;1275;22245;-66
2023/04/22 07:32:18;;;;;;;11.90;7.90;;;;;;;14.58;100.00;99193.39;110445;1275;22204;-67
2023/04/22 07:34:46;;;;;;;10.50;7.10;;;;;;;14.77;100.00;99192.14;110436;1267;22266;-66
2023/04/22 07:37:15;;;;;;;12.50;7.50;;;;;;;14.83;100.00;99187.44;108323;1267;25585;-66
2023/04/22 07:39:43;;;;;;;11.80;7.90;;;;;;;14.88;100.00;99185.18;107638;1273;22525;-66
2023/04/22 07:42:11;;;;;;;12.90;7.40;;;;;;;14.95;100.00;99184.31;107507;1276;22607;-66
2023/04/22 07:44:40;;;;;;;13.60;7.10;;;;;;;15.10;100.00;99182.73;107614;1274;22543;-66
2023/04/22 07:47:08;;;;;;;11.40;7.20;;;;;;;15.20;100.00;99182.98;107622;1267;24323;-66
2023/04/22 07:49:36;;;;;;;11.40;7.60;;;;;;;15.24;100.00;99184.45;107895;1267;26166;-65
2023/04/22 07:52:05;;;;;;;11.70;7.80;;;;;;;15.28;100.00;99181.91;107573;1269;24313;-65
2023/04/22 07:54:33;;;;;;;13.30;7.80;;;;;;;15.20;100.00;99182.14;106617;1274;22660;-65
2023/04/22 07:57:02;;;;;;;12.30;7.60;;;;;;;15.22;100.00;99184.50;107781;1271;24198;-65
2023/04/22 08:01:26;;;;;;;10.30;7.10;;;;;;;15.47;100.00;99186.48;105333;1310;545061;-65
2023/04/22 08:03:54;;;;;;;11.70;7.50;;;;;;;15.45;100.00;99188.70;109346;1284;22405;-65
2023/04/22 08:06:23;;;;;;;11.40;7.70;;;;;;;15.47;100.00;99190.55;109833;1277;22415;-66
2023/04/22 08:08:51;;;;;;;13.00;7.90;;;;;;;15.63;100.00;99190.02;109770;1277;22209;-67
2023/04/22 08:11:20;;;;;;;14.40;7.40;;;;;;;15.94;100.00;99186.88;109814;1278;22558;-67
2023/04/22 08:13:48;;;;;;;11.60;7.90;;;;;;;16.28;100.00;99187.17;109857;1277;22457;-64
2023/04/22 08:16:17;;;;;;;10.90;7.00;;;;;;;16.55;100.00;99187.55;109716;1272;240866;-65
2023/04/22 08:18:45;;;;;;;10.00;7.00;;;;;;;16.76;100.00;99185.31;109965;1272;22319;-65
2023/04/22 08:21:13;;;;;;;11.20;7.70;;;;;;;17.03;100.00;99183.80;110008;1279;22230;-63
2023/04/22 08:23:41;;;;;;;11.80;7.70;;;;;;;17.32;100.00;99181.29;110024;1273;22384;-63
2023/04/22 08:26:13;;;;;;;11.20;7.40;;;;;;;17.48;100.00;99178.25;110010;1278;22390;-63
2023/04/22 08:28:42;;;;;;;13.00;7.10;;;;;;;17.57;100.00;99179.48;110024;1279;22326;-65
2023/04/22 08:31:11;;;;;;;9.80;6.70;;;;;;;17.65;100.00;99183.05;109883;1275;22415;-64
2023/04/22 08:33:40;;;;;;;10.30;7.40;;;;;;;17.60;100.00;99179.77;109990;1279;22537;-65
2023/04/22 08:36:09;;;;;;;11.20;7.10;;;;;;;17.50;100.00;99174.45;109901;1279;22247;-64
2023/04/22 08:38:38;;;;;;;10.90;7.10;;;;;;;17.40;100.00;99173.48;110001;1276;23105;-64
2023/04/22 08:41:06;;;;;;;11.80;7.50;;;;;;;17.28;100.00;99176.38;109933;1279;22241;-64
2023/04/22 08:43:35;;;;;;;12.80;7.00;;;;;;;17.28;100.00;99176.62;109889;1279;22406;-64
2023/04/22 08:46:04;;;;;;;12.10;7.70;;;;;;;17.26;100.00;99176.45;110017;1273;22231;-65
2023/04/22 08:48:33;;;;;;;10.00;7.10;;;;;;;17.32;100.00;99175.27;109864;1277;22449;-64
2023/04/22 08:51:02;;;;;;;11.50;6.90;;;;;;;17.50;100.00;99177.86;109905;1279;22438;-64
2023/04/22 08:53:30;;;;;;;10.00;7.00;;;;;;;17.63;100.00;99179.11;110007;1279;22333;-64
2023/04/22 08:55:59;;;;;;;12.20;7.60;;;;;;;17.62;100.00;99178.92;110035;1279;22221;-64
2023/04/22 08:58:28;;;;;;;9.90;6.70;;;;;;;17.58;100.00;99173.25;109931;1280;22257;-64
2023/04/22 09:00:56;;;;;;;10.10;6.50;;;;;;;17.58;100.00;99176.54;109913;1273;22882;-65
2023/04/22 09:03:24;;;;;;;11.30;6.40;;;;;;;17.65;100.00;99172.75;109925;1273;23186;-64
2023/04/22 09:05:53;;;;;;;11.00;6.50;;;;;;;17.78;100.00;99173.91;109899;1280;22730;-64
2023/04/22 09:08:21;;;;;;;9.30;6.50;;;;;;;17.91;100.00;99174.65;109994;1280;22374;-64
2023/04/22 09:10:49;;;;;;;8.20;6.10;;;;;;;18.08;100.00;99172.83;109920;1273;23537;-65
2023/04/22 09:13:17;;;;;;;8.70;6.20;;;;;;;18.29;99.05;99173.39;109934;1279;23051;-65
2023/04/22 09:15:46;;;;;;;7.80;5.70;;;;;;;18.37;83.33;99171.18;109890;1274;22354;-65
2023/04/22 09:18:18;;;;;;;9.60;6.30;;;;;;;18.37;72.22;99169.91;109852;1274;23276;-66
2023/04/22 09:20:47;;;;;;;13.00;6.50;;;;;;;18.29;71.93;99176.52;109919;1274;22168;-65
2023/04/22 09:23:15;;;;;;;9.80;6.40;;;;;;;18.19;67.09;99171.11;109916;1274;22430;-66
2023/04/22 09:25:43;;;;;;;11.10;6.30;;;;;;;18.01;71.95;99174.10;109930;1275;22421;-66
2023/04/22 09:28:16;;;;;;;9.00;6.10;;;;;;;18.01;76.46;99173.94;109881;1274;22394;-65
2023/04/22 09:30:45;;;;;;;10.20;6.00;;;;;;;18.16;76.46;99176.52;109915;1278;22230;-65
2023/04/22 09:33:14;;;;;;;9.80;7.00;;;;;;;18.25;71.04;99173.77;109925;1276;22293;-65
2023/04/22 09:35:42;;;;;;;9.30;6.40;;;;;;;18.20;64.31;99170.69;109979;1272;22892;-65
2023/04/22 09:38:11;;;;;;;11.70;6.00;;;;;;;18.19;68.58;99172.77;110174;1277;22407;-65
2023/04/22 09:40:42;;;;;;;8.70;6.30;;;;;;;18.21;61.23;99169.67;110122;1276;22202;-65
2023/04/22 09:43:11;;;;;;;11.10;6.00;;;;;;;18.16;61.68;99170.27;110176;1270;22269;-65
2023/04/22 09:45:40;;;;;;;9.40;6.40;;;;;;;18.12;60.40;99171.19;110200;1277;23231;-65
2023/04/22 09:48:13;;;;;;;8.20;6.20;;;;;;;18.11;61.48;99174.48;110175;1276;22231;-65
2023/04/22 09:50:49;;;;;;;8.70;6.50;;;;;;;18.01;55.66;99174.98;110120;1274;22427;-65
2023/04/22 09:53:18;;;;;;;8.20;6.50;;;;;;;17.96;59.49;99179.09;110250;1276;23644;-65
2023/04/22 09:55:52;;;;;;;10.00;6.30;;;;;;;17.96;56.08;99181.23;110166;1278;22354;-65
2023/04/22 09:58:26;;;;;;;8.30;5.70;;;;;;;17.81;52.80;99174.25;110367;1276;23313;-65
2023/04/22 10:00:56;;;;;;;9.90;6.20;;;;;;;17.73;57.00;99171.90;110163;1276;22369;-66
2023/04/22 10:03:24;;;;;;;10.00;6.10;;;;;;;17.79;60.16;99169.77;110201;1276;22369;-65
2023/04/22 10:05:52;;;;;;;8.80;5.60;;;;;;;17.88;60.87;99171.71;110315;1276;22982;-66
2023/04/22 10:08:21;;;;;;;9.30;6.30;;;;;;;18.02;59.65;99176.73;110333;1275;23415;-65
2023/04/22 10:10:49;;;;;;;10.30;6.50;;;;;;;18.10;51.76;99176.83;110188;1274;22209;-67
2023/04/22 10:13:17;;;;;;;10.80;6.70;;;;;;;18.11;46.96;99178.50;110146;1269;22721;-65
2023/04/22 10:15:50;;;;;;;8.30;6.00;;;;;;;18.09;47.35;99174.43;110265;1276;23010;-65
2023/04/22 10:18:28;;;;;;;9.60;5.80;;;;;;;18.10;49.53;99174.78;109992;1276;22395;-64
2023/04/22 10:20:56;;;;;;;10.60;6.00;;;;;;;18.08;49.01;99176.68;110215;1273;22265;-65
2023/04/22 10:23:28;;;;;;;11.70;5.30;;;;;;;18.05;50.26;99174.11;110190;1274;23392;-66
2023/04/22 10:25:56;;;;;;;9.30;5.80;;;;;;;18.12;56.62;99171.45;109912;1270;22309;-65
2023/04/22 10:28:27;;;;;;;8.50;5.30;;;;;;;18.28;53.93;99172.58;110164;1276;23204;-67
2023/04/22 10:30:56;;;;;;;7.20;5.50;;;;;;;18.41;49.22;99171.63;110227;1276;22484;-69
2023/04/22 10:33:27;;;;;;;8.10;5.00;;;;;;;18.49;41.02;99170.73;110129;1276;23012;-64
2023/04/22 10:36:14;;;;;;;10.50;5.20;;;;;;;18.45;42.29;99169.73;110158;1272;22879;-69
2023/04/22 10:38:42;;;;;;;8.60;5.70;;;;;;;18.37;44.38;99169.66;110211;1275;22279;-67
2023/04/22 10:41:14;;;;;;;7.90;5.40;;;;;;;18.26;43.57;99173.34;110141;1276;22301;-69
2023/04/22 10:43:45;;;;;;;9.20;5.80;;;;;;;18.13;44.18;99177.42;110133;1272;22289;-69
2023/04/22 10:46:31;;;;;;;9.90;5.80;;;;;;;18.06;43.83;99178.63;110143;1270;23371;-67
2023/04/22 10:49:14;;;;;;;8.30;5.70;;;;;;;17.92;43.22;99177.30;110231;1276;23266;-66
2023/04/22 10:51:46;;;;;;;8.80;5.80;;;;;;;17.83;45.12;99177.73;110208;1276;23351;-69
2023/04/22 10:54:27;;;;;;;8.80;5.80;;;;;;;17.84;43.38;99175.34;110164;1274;22248;-65
2023/04/22 10:57:14;;;;;;;9.00;5.60;;;;;;;17.79;44.92;99181.58;110165;1276;22477;-64
2023/04/22 10:59:46;;;;;;;8.20;5.50;;;;;;;17.87;46.01;99181.17;110217;1270;22312;-65
2023/04/22 11:02:17;;;;;;;7.40;5.00;;;;;;;18.03;51.40;99187.63;110127;1270;22621;-66
2023/04/22 11:04:46;;;;;;;9.70;5.40;;;;;;;18.11;53.28;99187.25;110216;1276;23205;-68
2023/04/22 11:07:19;;;;;;;8.90;5.10;;;;;;;18.21;55.51;99182.06;110164;1274;22335;-66
2023/04/22 11:09:52;;;;;;;9.10;5.30;;;;;;;18.38;56.52;99188.45;110183;1270;22253;-66
2023/04/22 11:12:38;;;;;;;9.00;5.30;;;;;;;18.52;52.24;99190.10;110226;1276;22273;-66
2023/04/22 11:15:12;;;;;;;7.90;5.10;;;;;;;18.47;48.24;99188.98;110270;1276;22640;-65
2023/04/22 11:17:45;;;;;;;8.20;4.80;;;;;;;18.32;49.78;99193.42;110163;1277;22278;-65
2023/04/22 11:20:16;;;;;;;9.70;4.60;;;;;;;18.26;48.62;99196.09;110174;1276;22797;-64
2023/04/22 11:22:50;;;;;;;7.60;4.80;;;;;;;18.23;48.45;99194.11;110146;1276;22209;-67
2023/04/22 11:25:19;;;;;;;9.40;4.50;;;;;;;18.23;50.12;99194.20;110161;1276;22470;-66
2023/04/22 11:27:47;;;;;;;7.00;4.50;;;;;;;18.26;53.53;99197.13;110138;1275;22438;-66
2023/04/22 11:30:22;;;;;;;7.70;4.20;;;;;;;18.32;49.91;99200.10;110160;1273;22868;-67